QDA865 ZSWF-ZJSY
Flight info
| Callsign | QDA865 |
|---|---|
| Flight time | N/A |
| Altitude | 35100 |
| Route | ZSWF YQG62X YQG X19 HZG X257 ZHO A461 LKO R343 ENKUS X28 LH W71 AGPOR V12 NYB G221 UPRIS UPRS2C I08Z ZJSY |
| Aircraft | A320/M-SDE3FGHIRWY/LB1 |
Departure
| Time | N/A |
|---|---|
| Airport | Weifang Nanyuan Airport (ZSWF) |
Arrival
| Time | 2026-05-04 13:41 |
|---|---|
| Airport | Sanya Phoenix International Airport (ZJSY) |
| Time | Latitude | Longitude | Altitude | Speed | Heading |
|---|---|---|---|---|---|
| 2026-05-04 13:13 | 22.40819 | 110.15099 | 35140 ft | 473 kts | 179° |
| 2026-05-04 13:14 | 22.30482 | 110.16590 | 35142 ft | 473 kts | 179° |
| 2026-05-04 13:14 | 22.04331 | 110.20358 | 35150 ft | 474 kts | 179° |
| 2026-05-04 13:15 | 21.78714 | 110.24034 | 35147 ft | 473 kts | 179° |
| 2026-05-04 13:15 | 21.52606 | 110.27769 | 35153 ft | 473 kts | 178° |
| 2026-05-04 13:16 | 21.26672 | 110.31463 | 35149 ft | 473 kts | 178° |
| 2026-05-04 13:16 | 21.00779 | 110.32602 | 35139 ft | 463 kts | 189° |
| 2026-05-04 13:17 | 20.75016 | 110.30969 | 35149 ft | 463 kts | 189° |
| 2026-05-04 13:17 | 20.49349 | 110.29079 | 35108 ft | 457 kts | 198° |
| 2026-05-04 13:18 | 20.25408 | 110.21443 | 35115 ft | 452 kts | 202° |
| 2026-05-04 13:18 | 20.02820 | 110.14091 | 35113 ft | 453 kts | 202° |
| 2026-05-04 13:19 | 19.96809 | 110.11437 | 35113 ft | 447 kts | 210° |
| 2026-05-04 13:19 | 19.91184 | 110.08686 | 35120 ft | 448 kts | 210° |
| 2026-05-04 13:20 | 19.85536 | 110.05941 | 35122 ft | 449 kts | 209° |
| 2026-05-04 13:20 | 19.79855 | 110.03199 | 35122 ft | 449 kts | 209° |
| 2026-05-04 13:21 | 19.74156 | 110.00458 | 35119 ft | 450 kts | 209° |
| 2026-05-04 13:21 | 19.68492 | 109.97737 | 35125 ft | 450 kts | 209° |
| 2026-05-04 13:22 | 19.62801 | 109.94992 | 35122 ft | 450 kts | 209° |
| 2026-05-04 13:22 | 19.57090 | 109.92250 | 35123 ft | 450 kts | 209° |
| 2026-05-04 13:22 | 19.54220 | 109.90872 | 34670 ft | 453 kts | 208° |
| 2026-05-04 13:23 | 19.51367 | 109.89501 | 34098 ft | 452 kts | 208° |
| 2026-05-04 13:23 | 19.48495 | 109.88121 | 33464 ft | 452 kts | 208° |
| 2026-05-04 13:23 | 19.45636 | 109.86746 | 32839 ft | 453 kts | 208° |
| 2026-05-04 13:23 | 19.42759 | 109.85361 | 32225 ft | 454 kts | 208° |
| 2026-05-04 13:24 | 19.39923 | 109.83998 | 31635 ft | 455 kts | 208° |
| 2026-05-04 13:24 | 19.37039 | 109.82616 | 31047 ft | 456 kts | 208° |
| 2026-05-04 13:24 | 19.34138 | 109.81233 | 30467 ft | 458 kts | 207° |
| 2026-05-04 13:25 | 19.28305 | 109.78473 | 29208 ft | 461 kts | 207° |
| 2026-05-04 13:25 | 19.25375 | 109.77093 | 28563 ft | 462 kts | 207° |
| 2026-05-04 13:25 | 19.22428 | 109.75698 | 27937 ft | 464 kts | 207° |
| 2026-05-04 13:25 | 19.19489 | 109.74294 | 27319 ft | 465 kts | 207° |
| 2026-05-04 13:26 | 19.16530 | 109.72866 | 26709 ft | 467 kts | 207° |
| 2026-05-04 13:26 | 19.13607 | 109.71447 | 26125 ft | 469 kts | 207° |
| 2026-05-04 13:26 | 19.10632 | 109.70002 | 25546 ft | 471 kts | 207° |
| 2026-05-04 13:26 | 19.07654 | 109.68559 | 24974 ft | 472 kts | 207° |
| 2026-05-04 13:27 | 19.04657 | 109.67110 | 24423 ft | 474 kts | 207° |
| 2026-05-04 13:27 | 19.01649 | 109.65660 | 23881 ft | 475 kts | 207° |
| 2026-05-04 13:27 | 18.98649 | 109.64218 | 23284 ft | 473 kts | 207° |
| 2026-05-04 13:27 | 18.95663 | 109.62788 | 22637 ft | 469 kts | 207° |
| 2026-05-04 13:28 | 18.92712 | 109.61375 | 22002 ft | 464 kts | 207° |
| 2026-05-04 13:28 | 18.89778 | 109.59965 | 21392 ft | 460 kts | 207° |
| 2026-05-04 13:28 | 18.86874 | 109.58569 | 20786 ft | 456 kts | 207° |
| 2026-05-04 13:28 | 18.84046 | 109.57209 | 20205 ft | 453 kts | 207° |
| 2026-05-04 13:29 | 18.81181 | 109.55834 | 19626 ft | 450 kts | 206° |
| 2026-05-04 13:29 | 18.78340 | 109.54471 | 19058 ft | 446 kts | 206° |
| 2026-05-04 13:29 | 18.75528 | 109.53121 | 18495 ft | 443 kts | 206° |
| 2026-05-04 13:29 | 18.72740 | 109.51783 | 17854 ft | 439 kts | 206° |
| 2026-05-04 13:30 | 18.69963 | 109.50452 | 17034 ft | 437 kts | 206° |
| 2026-05-04 13:30 | 18.67217 | 109.49136 | 16087 ft | 429 kts | 206° |
| 2026-05-04 13:30 | 18.64558 | 109.47865 | 14801 ft | 424 kts | 206° |
| 2026-05-04 13:30 | 18.61896 | 109.46592 | 14150 ft | 413 kts | 206° |
| 2026-05-04 13:31 | 18.59330 | 109.45366 | 14028 ft | 397 kts | 206° |
| 2026-05-04 13:31 | 18.56866 | 109.44188 | 13910 ft | 381 kts | 206° |
| 2026-05-04 13:31 | 18.54531 | 109.43074 | 13782 ft | 355 kts | 206° |
| 2026-05-04 13:31 | 18.52362 | 109.42040 | 13654 ft | 330 kts | 206° |
| 2026-05-04 13:32 | 18.50338 | 109.41038 | 13308 ft | 315 kts | 211° |
| 2026-05-04 13:32 | 18.49133 | 109.40219 | 12943 ft | 309 kts | 219° |
| 2026-05-04 13:32 | 18.47574 | 109.38700 | 12338 ft | 304 kts | 230° |
| 2026-05-04 13:32 | 18.45801 | 109.36401 | 11483 ft | 301 kts | 232° |
| 2026-05-04 13:33 | 18.44489 | 109.34696 | 10862 ft | 299 kts | 231° |
| 2026-05-04 13:33 | 18.43198 | 109.33022 | 10254 ft | 297 kts | 231° |
| 2026-05-04 13:33 | 18.41899 | 109.31338 | 9646 ft | 295 kts | 231° |
| 2026-05-04 13:33 | 18.40611 | 109.29673 | 8987 ft | 293 kts | 231° |
| 2026-05-04 13:34 | 18.39373 | 109.27981 | 8320 ft | 291 kts | 238° |
| 2026-05-04 13:34 | 18.38763 | 109.26733 | 7883 ft | 290 kts | 248° |
| 2026-05-04 13:34 | 18.38259 | 109.24685 | 7236 ft | 289 kts | 262° |
| 2026-05-04 13:34 | 18.37995 | 109.22589 | 6591 ft | 289 kts | 262° |
| 2026-05-04 13:35 | 18.37645 | 109.19905 | 6296 ft | 266 kts | 261° |
| 2026-05-04 13:35 | 18.35792 | 109.16993 | 5833 ft | 244 kts | 201° |
| 2026-05-04 13:35 | 18.34133 | 109.16715 | 5630 ft | 243 kts | 170° |
| 2026-05-04 13:36 | 18.33023 | 109.16958 | 5403 ft | 242 kts | 166° |
| 2026-05-04 13:36 | 18.31384 | 109.17259 | 5051 ft | 243 kts | 171° |
| 2026-05-04 13:36 | 18.29703 | 109.17486 | 4682 ft | 243 kts | 169° |
| 2026-05-04 13:36 | 18.28168 | 109.18151 | 4297 ft | 240 kts | 135° |
| 2026-05-04 13:37 | 18.27381 | 109.19641 | 3945 ft | 236 kts | 98° |
| 2026-05-04 13:37 | 18.27373 | 109.21361 | 3621 ft | 235 kts | 84° |
| 2026-05-04 13:37 | 18.27667 | 109.23038 | 3184 ft | 234 kts | 73° |
| 2026-05-04 13:37 | 18.28075 | 109.24673 | 2793 ft | 228 kts | 79° |
| 2026-05-04 13:38 | 18.28332 | 109.26268 | 2492 ft | 219 kts | 82° |
| 2026-05-04 13:38 | 18.28538 | 109.27821 | 2212 ft | 209 kts | 82° |
| 2026-05-04 13:38 | 18.28729 | 109.29289 | 1953 ft | 198 kts | 82° |
| 2026-05-04 13:38 | 18.28912 | 109.30687 | 1727 ft | 185 kts | 82° |
| 2026-05-04 13:39 | 18.29082 | 109.31990 | 1475 ft | 175 kts | 82° |
| 2026-05-04 13:39 | 18.29244 | 109.33227 | 1246 ft | 167 kts | 82° |
| 2026-05-04 13:39 | 18.29391 | 109.34339 | 1053 ft | 159 kts | 82° |
| 2026-05-04 13:39 | 18.29538 | 109.35460 | 863 ft | 149 kts | 82° |
| 2026-05-04 13:40 | 18.29666 | 109.36446 | 772 ft | 143 kts | 82° |
| 2026-05-04 13:40 | 18.29804 | 109.37458 | 585 ft | 138 kts | 81° |
| 2026-05-04 13:40 | 18.29925 | 109.38479 | 363 ft | 137 kts | 81° |
| 2026-05-04 13:40 | 18.30061 | 109.39471 | 169 ft | 138 kts | 80° |
| 2026-05-04 13:41 | 18.30189 | 109.40435 | 87 ft | 119 kts | 82° |
| 2026-05-04 13:41 | 18.30275 | 109.41104 | 86 ft | 67 kts | 82° |
| 2026-05-04 13:41 | 18.30318 | 109.41432 | 87 ft | 34 kts | 83° |
| 2026-05-04 13:42 | 18.30453 | 109.41833 | 88 ft | 18 kts | 53° |
| 2026-05-04 13:42 | 18.30521 | 109.41868 | 87 ft | 5 kts | 344° |
| 2026-05-04 13:42 | 18.30539 | 109.41845 | 86 ft | 4 kts | 297° |
| 2026-05-04 13:42 | 18.30538 | 109.41795 | 84 ft | 15 kts | 261° |
| 2026-05-04 13:43 | 18.30518 | 109.41639 | 86 ft | 24 kts | 262° |
| 2026-05-04 13:43 | 18.30495 | 109.41458 | 84 ft | 26 kts | 262° |
| 2026-05-04 13:43 | 18.30485 | 109.41372 | 86 ft | 10 kts | 262° |
| 2026-05-04 13:43 | 18.30491 | 109.41310 | 86 ft | 10 kts | 315° |
| 2026-05-04 13:44 | 18.30577 | 109.41286 | 85 ft | 18 kts | 352° |
| 2026-05-04 13:44 | 18.30729 | 109.41262 | 84 ft | 18 kts | 350° |
| 2026-05-04 13:44 | 18.30778 | 109.41193 | 84 ft | 13 kts | 262° |
| 2026-05-04 13:44 | 18.30769 | 109.41106 | 84 ft | 11 kts | 264° |
| 2026-05-04 13:45 | 18.30759 | 109.41029 | 86 ft | 10 kts | 262° |
| 2026-05-04 13:45 | 18.30750 | 109.40961 | 84 ft | 9 kts | 262° |
| 2026-05-04 13:45 | 18.30743 | 109.40901 | 84 ft | 8 kts | 263° |
| 2026-05-04 13:45 | 18.30741 | 109.40884 | 84 ft | 0 kts | 270° |
| 2026-05-04 13:46 | 18.30752 | 109.40867 | 88 ft | 3 kts | 315° |
| 2026-05-04 13:46 | 18.30777 | 109.40858 | 85 ft | 6 kts | 350° |
| 2026-05-04 13:46 | 18.30814 | 109.40852 | 84 ft | 5 kts | 352° |
| 2026-05-04 13:46 | 18.30834 | 109.40849 | 88 ft | 0 kts | 351° |